Flight Track Log - Related Links

Times and Time Zones

All times are in EDT time to prevent confusion due to time zone crossing. See the GJS3710 flight status page for this flight to view local times or setup timezone preferences in your user account.

Time Position Orientation Groundspeed Altitude Reporting Facility
EDT Latitude Longitude Course Direction KTS MPH feet Rate Location/Type
Sun 07:06:23 PM 38.7667 -90.4167 14° North 152 175 1,600  Level Gateway (St. Louis) TRACON
Sun 07:07:26 PM 38.8169 -90.4389 341° North 193 222 3,900 2,064 Climbing Kansas City Center
Sun 07:08:28 PM 38.8764 -90.4067 23° Northeast 234 269 5,900 2,177 Climbing Kansas City Center
Sun 07:09:30 PM 38.9367 -90.3533 35° Northeast 256 295 8,400 2,226 Climbing Kansas City Center
Sun 07:11:00 PM 39.0804 -90.0788 14° North  Level FlightAware Approximate
Sun 07:11:34 PM 39.0689 -90.2361 35° Northeast 301 346 12,800  Level Kansas City Center
Sun 07:12:36 PM 39.1497 -90.1639 35° Northeast 341 392 14,400 1,742 Climbing Kansas City Center
Sun 07:13:38 PM 39.2356 -90.0864 35° Northeast 369 425 16,400 2,129 Climbing Kansas City Center
Sun 07:14:40 PM 39.3414 -89.9925 34° Northeast 382 440 18,800 2,129 Climbing Kansas City Center
Sun 07:15:42 PM 39.4389 -89.9300 26° Northeast 390 449 20,800 1,065 Climbing Kansas City Center
Sun 07:16:44 PM 39.5386 -89.8683 25° Northeast 396 456 21,000 97 Climbing Kansas City Center
Sun 07:17:46 PM 39.6428 -89.8047 25° Northeast 408 470 21,000  Level Kansas City Center
Sun 07:18:48 PM 39.7475 -89.7328 28° Northeast 418 481 21,000  Level Kansas City Center
Sun 07:19:50 PM 39.8500 -89.6672 26° Northeast 414 476 21,000  Level Kansas City Center
Sun 07:20:52 PM 39.9622 -89.5600 36° Northeast 419 482 21,000  Level Kansas City Center
Sun 07:21:54 PM 40.0561 -89.4719 36° Northeast 418 481 21,000  Level Kansas City Center
Sun 07:22:56 PM 40.1478 -89.3833 36° Northeast 415 478 21,000  Level Kansas City Center
Sun 07:24:06 PM 40.2586 -89.2783 36° Northeast 415 478 21,000  Level Chicago Center
Sun 07:25:08 PM 40.3517 -89.1886 36° Northeast 417 480 21,000  Level Chicago Center
Sun 07:26:10 PM 40.4564 -89.1275 24° Northeast 417 480 21,000  Level Chicago Center
Sun 07:27:12 PM 40.5619 -89.0742 21° North 412 474 21,000  Level Chicago Center
Sun 07:28:14 PM 40.6894 -89.0086 21° North 412 474 21,000  Level Chicago Center
Sun 07:29:16 PM 40.7947 -88.9556 21° North 409 471 21,000 -677 Level Chicago Center
Sun 07:30:18 PM 40.9033 -88.8994 21° North 414 476 19,600 -1,584 Descending Chicago Center
Sun 07:31:21 PM 41.0058 -88.8475 21° North 394 453 17,700 -1,776 Descending Chicago Center
Sun 07:32:23 PM 41.0986 -88.7994 21° North 363 418 15,900 -1,887 Descending Chicago Center
Sun 07:33:25 PM 41.2106 -88.7414 21° North 360 414 13,800 -1,887 Descending Chicago Center
Sun 07:34:27 PM 41.3011 -88.6942 21° North 353 406 12,000 -1,355 Descending Chicago Center
Sun 07:35:29 PM 41.3894 -88.6503 20° North 344 396 11,000 -484 Descending Chicago Center
Sun 07:36:31 PM 41.4581 -88.5692 42° Northeast 337 388 11,000  Level Chicago Center
Sun 07:37:33 PM 41.5256 -88.4833 44° Northeast 335 386 11,000 -194 Level Chicago Center
Sun 07:38:35 PM 41.5903 -88.4028 43° Northeast 319 367 10,600 -823 Descending Chicago Center
Sun 07:39:37 PM 41.6572 -88.3553 28° Northeast 278 320 9,300 -1,597 Descending Chicago Center
Sun 07:40:39 PM 41.7425 -88.3214 17° North 267 307 7,300 -1,122 Descending Chicago Center
Sun 07:41:40 PM 41.8136 -88.2897 18° North 270 311 7,000 -439 Descending Chicago Center
Sun 07:42:42 PM 41.8744 -88.2614 19° North 229 264 6,400 -919 Descending Chicago Center
Sun 07:43:44 PM 41.9314 -88.2383 17° North 217 250 5,100 -1,161 Descending Chicago Center
Sun 07:44:46 PM 41.9661 -88.1719 55° Northeast 230 265 4,000 -1,181 Descending Chicago Center
Sun 07:45:51 PM 41.9667 -88.0667 90° East 233 268 2,600 -1,292 Descending Chicago TRACON

Login

Don't have an account? Register now (free) for customized features, flight alerts, and more!